createdAt,value
2019-01-26T00:00:43.681Z,27.07
2019-01-26T00:03:14.355Z,30.83
2019-01-26T00:05:45.009Z,26.10
2019-01-26T00:08:16.731Z,25.57
2019-01-26T00:10:47.415Z,28.75
2019-01-26T00:13:18.047Z,25.15
2019-01-26T00:15:48.610Z,25.73
2019-01-26T00:18:21.214Z,24.77
2019-01-26T00:20:51.777Z,21.77
2019-01-26T00:23:22.206Z,18.77
2019-01-26T00:25:52.770Z,20.67
2019-01-26T00:28:23.578Z,19.82
2019-01-26T00:30:54.127Z,20.93
2019-01-26T00:33:24.680Z,19.23
2019-01-26T00:35:55.183Z,19.83
2019-01-26T00:38:25.762Z,22.37
2019-01-26T00:40:56.363Z,21.83
2019-01-26T00:43:26.961Z,19.57
2019-01-26T00:45:57.566Z,22.43
2019-01-26T00:48:28.246Z,22.30
2019-01-26T00:50:59.020Z,25.10
2019-01-26T00:53:30.759Z,23.37
2019-01-26T00:56:02.777Z,24.10
2019-01-26T00:58:33.410Z,17.63
2019-01-26T01:01:04.243Z,19.93
2019-01-26T01:03:34.799Z,16.57
2019-01-26T01:06:05.340Z,20.30
2019-01-26T01:08:37.872Z,22.07
2019-01-26T01:11:08.412Z,20.47
2019-01-26T01:13:38.927Z,21.37
2019-01-26T01:16:09.360Z,18.77
2019-01-26T01:18:39.971Z,17.50
2019-01-26T01:21:10.541Z,16.60
2019-01-26T01:23:42.902Z,21.17
2019-01-26T01:26:13.447Z,17.07
2019-01-26T01:28:43.873Z,20.13
2019-01-26T01:31:14.349Z,16.53
2019-01-26T01:33:44.758Z,13.07
2019-01-26T01:36:15.486Z,18.50
2019-01-26T01:38:45.990Z,14.47
2019-01-26T01:41:16.343Z,13.53
2019-01-26T01:43:46.818Z,12.17
2019-01-26T01:46:17.394Z,12.43
2019-01-26T01:48:47.906Z,14.33
2019-01-26T01:51:18.695Z,18.75
2019-01-26T01:53:49.333Z,11.80
2019-01-26T01:56:19.826Z,12.45
2019-01-26T01:58:50.179Z,12.37
2019-01-26T02:01:20.514Z,14.23
2019-01-26T02:03:51.043Z,12.33
2019-01-26T02:06:21.601Z,13.00
2019-01-26T02:08:52.091Z,11.77
2019-01-26T02:11:22.932Z,12.00
2019-01-26T02:13:53.521Z,12.27
2019-01-26T02:16:24.138Z,11.20
2019-01-26T02:18:55.345Z,13.57
2019-01-26T02:21:25.944Z,16.33
2019-01-26T02:23:56.378Z,16.80
2019-01-26T02:26:26.897Z,14.33
2019-01-26T02:28:57.457Z,15.50
2019-01-26T02:31:28.133Z,15.13
2019-01-26T02:33:58.669Z,14.37
2019-01-26T02:36:29.116Z,14.65
2019-01-26T02:38:59.736Z,14.63
2019-01-26T02:41:33.969Z,15.00
2019-01-26T02:44:04.737Z,14.10
2019-01-26T02:46:35.326Z,14.47
2019-01-26T02:49:11.040Z,13.17
2019-01-26T02:51:44.394Z,14.43
2019-01-26T02:54:14.991Z,17.33
2019-01-26T02:56:45.785Z,12.40
2019-01-26T02:59:22.396Z,13.53
2019-01-26T03:01:52.931Z,11.90
2019-01-26T03:04:23.665Z,10.75
2019-01-26T03:06:55.282Z,13.20
2019-01-26T03:09:25.891Z,10.80
2019-01-26T03:11:56.475Z,10.50
2019-01-26T03:14:27.055Z,11.50
2019-01-26T03:16:57.633Z,12.90
2019-01-26T03:19:28.142Z,11.17
2019-01-26T03:21:58.828Z,12.77
2019-01-26T03:24:29.660Z,14.20
2019-01-26T03:27:03.056Z,13.97
2019-01-26T03:29:33.661Z,14.03
2019-01-26T03:32:04.449Z,15.33
2019-01-26T03:34:35.084Z,15.67
2019-01-26T03:37:07.178Z,16.00
2019-01-26T03:39:37.721Z,14.80
2019-01-26T03:42:08.351Z,16.23
2019-01-26T03:44:38.945Z,16.17
2019-01-26T03:47:13.845Z,15.30
2019-01-26T03:49:41.783Z,17.67
2019-01-26T03:52:15.408Z,17.12
2019-01-26T03:54:46.078Z,19.00
2019-01-26T03:57:16.578Z,15.00
2019-01-26T03:59:47.103Z,17.70
2019-01-26T04:02:17.505Z,17.35
2019-01-26T04:04:48.158Z,18.43
2019-01-26T04:07:21.724Z,16.43
2019-01-26T04:09:52.257Z,15.47
2019-01-26T04:12:24.811Z,16.80
2019-01-26T04:14:55.348Z,16.30
2019-01-26T04:17:25.937Z,16.50
2019-01-26T04:19:56.433Z,16.40
2019-01-26T04:22:27.058Z,16.73
2019-01-26T04:24:57.645Z,16.90
2019-01-26T04:27:29.166Z,15.63
2019-01-26T04:29:59.822Z,14.57
2019-01-26T04:32:30.365Z,16.07
2019-01-26T04:35:00.887Z,14.60
2019-01-26T04:37:31.476Z,16.50
2019-01-26T04:40:01.919Z,14.63
2019-01-26T04:42:32.311Z,14.27
2019-01-26T04:45:02.640Z,13.73
2019-01-26T04:47:33.344Z,15.43
2019-01-26T04:50:04.387Z,14.13
2019-01-26T04:52:34.991Z,15.10
2019-01-26T04:55:06.305Z,14.43
2019-01-26T04:57:36.813Z,12.83
2019-01-26T05:00:13.340Z,14.53
2019-01-26T05:02:43.741Z,13.70
2019-01-26T05:05:14.235Z,11.03
2019-01-26T05:07:44.593Z,10.63
2019-01-26T05:10:16.521Z,11.95
2019-01-26T05:12:47.130Z,13.70
2019-01-26T05:15:17.940Z,11.12
2019-01-26T05:17:48.328Z,11.50
2019-01-26T05:20:22.130Z,12.77
2019-01-26T05:22:52.544Z,13.23
2019-01-26T05:25:22.937Z,12.80
2019-01-26T05:27:53.331Z,12.10
2019-01-26T05:30:27.021Z,10.57
2019-01-26T05:33:04.716Z,12.73
2019-01-26T05:35:38.109Z,12.20
2019-01-26T05:38:08.527Z,12.77
2019-01-26T05:40:38.894Z,13.80
2019-01-26T05:43:09.293Z,13.87
2019-01-26T05:45:42.046Z,13.77
2019-01-26T05:48:12.498Z,14.00
2019-01-26T05:50:42.995Z,14.70
2019-01-26T05:53:13.463Z,14.47
2019-01-26T05:55:43.898Z,15.40
2019-01-26T05:58:14.472Z,14.73
2019-01-26T06:00:44.752Z,16.00
2019-01-26T06:03:15.030Z,14.43
2019-01-26T06:05:45.391Z,15.13
2019-01-26T06:08:15.694Z,14.63
2019-01-26T06:10:46.156Z,15.53
2019-01-26T06:13:16.445Z,15.78
2019-01-26T06:15:49.529Z,16.80
2019-01-26T06:18:19.873Z,14.80
2019-01-26T06:20:50.275Z,14.73
2019-01-26T06:23:23.674Z,15.72
2019-01-26T06:25:54.050Z,16.60
2019-01-26T06:28:24.423Z,15.78
2019-01-26T06:30:54.811Z,17.07
2019-01-26T06:33:25.254Z,13.77
2019-01-26T06:35:55.637Z,14.77
2019-01-26T06:38:28.183Z,15.20
2019-01-26T06:40:58.305Z,13.10
2019-01-26T06:43:28.719Z,16.10
2019-01-26T06:45:59.019Z,15.13
2019-01-26T06:48:29.436Z,14.78
2019-01-26T06:50:59.759Z,14.77
2019-01-26T06:53:30.046Z,14.27
2019-01-26T06:56:03.187Z,14.07
2019-01-26T06:58:33.661Z,12.07
2019-01-26T07:01:07.018Z,12.80
2019-01-26T07:03:37.403Z,13.37
2019-01-26T07:06:32.638Z,13.10
2019-01-26T07:09:05.379Z,14.67
2019-01-26T07:11:35.616Z,14.37
2019-01-26T07:14:07.171Z,12.93
2019-01-26T07:16:37.558Z,14.13
2019-01-26T07:19:07.954Z,14.20
2019-01-26T07:21:38.337Z,13.57
2019-01-26T07:24:08.789Z,14.87
2019-01-26T07:26:39.081Z,14.73
2019-01-26T07:29:09.365Z,14.57
2019-01-26T07:31:39.773Z,14.43
2019-01-26T07:34:10.119Z,14.67
2019-01-26T07:36:40.574Z,14.10
2019-01-26T07:39:13.723Z,15.00
2019-01-26T07:41:44.028Z,13.97
2019-01-26T07:44:14.406Z,15.97
2019-01-26T07:46:44.850Z,15.60
2019-01-26T07:49:15.190Z,15.80
2019-01-26T07:51:45.557Z,16.43
2019-01-26T07:54:19.783Z,17.07
2019-01-26T07:56:52.383Z,14.15
2019-01-26T07:59:22.842Z,16.80
2019-01-26T08:01:53.137Z,16.37
2019-01-26T08:04:23.661Z,15.23
2019-01-26T08:06:54.004Z,16.97
2019-01-26T08:09:24.575Z,15.35
2019-01-26T08:11:55.033Z,15.80
2019-01-26T08:14:25.201Z,15.50
2019-01-26T08:16:55.709Z,15.70
2019-01-26T08:19:26.236Z,16.52
2019-01-26T08:21:56.680Z,15.77
2019-01-26T08:24:26.955Z,16.60
2019-01-26T08:27:00.273Z,16.40
2019-01-26T08:29:32.080Z,14.97
2019-01-26T08:32:02.400Z,14.67
2019-01-26T08:34:32.981Z,16.40
2019-01-26T08:37:03.299Z,15.80
2019-01-26T08:39:34.845Z,16.73
2019-01-26T08:42:05.588Z,15.30
2019-01-26T08:44:35.896Z,15.17
2019-01-26T08:47:07.492Z,14.97
2019-01-26T08:49:37.781Z,15.60
2019-01-26T08:52:08.259Z,12.57
2019-01-26T08:54:38.664Z,14.27
2019-01-26T08:57:09.101Z,15.23
2019-01-26T08:59:41.041Z,14.67
2019-01-26T09:02:25.670Z,14.80
2019-01-26T09:04:57.285Z,13.47
2019-01-26T09:07:29.291Z,14.87
2019-01-26T09:10:02.533Z,13.37
2019-01-26T09:12:33.416Z,12.70
2019-01-26T09:15:03.856Z,12.80
2019-01-26T09:17:34.266Z,14.00
2019-01-26T09:20:05.307Z,14.63
2019-01-26T09:22:35.976Z,16.00
2019-01-26T09:25:09.245Z,16.00
2019-01-26T09:27:41.585Z,14.80
2019-01-26T09:30:12.062Z,16.52
2019-01-26T09:32:42.655Z,14.63
2019-01-26T09:35:13.069Z,14.53
2019-01-26T09:37:43.448Z,13.20
2019-01-26T09:40:14.177Z,13.90
2019-01-26T09:42:44.586Z,13.60
2019-01-26T09:45:16.195Z,12.30
2019-01-26T09:47:47.064Z,12.93
2019-01-26T09:50:19.303Z,13.43
2019-01-26T09:52:49.809Z,10.17
2019-01-26T09:55:20.336Z,12.33
2019-01-26T09:57:50.702Z,12.73
2019-01-26T10:00:21.254Z,12.47
2019-01-26T10:02:52.960Z,11.83
2019-01-26T10:05:23.457Z,11.97
2019-01-26T10:07:53.812Z,12.60
2019-01-26T10:10:24.929Z,12.50
2019-01-26T10:12:55.791Z,12.30
2019-01-26T10:15:27.323Z,12.78
2019-01-26T10:17:58.041Z,12.10
2019-01-26T10:20:31.217Z,11.28
2019-01-26T10:23:01.667Z,11.13
2019-01-26T10:25:34.561Z,10.55
2019-01-26T10:28:05.640Z,10.20
2019-01-26T10:30:41.847Z,9.60
2019-01-26T10:33:12.352Z,10.78
2019-01-26T10:36:18.438Z,10.87
2019-01-26T10:38:55.904Z,10.47
2019-01-26T10:41:39.194Z,9.60
2019-01-26T10:44:12.168Z,10.40
2019-01-26T10:46:42.686Z,10.90
2019-01-26T10:49:13.083Z,10.37
2019-01-26T10:51:43.466Z,9.73
2019-01-26T10:54:13.763Z,10.55
2019-01-26T10:56:44.143Z,10.77
2019-01-26T10:59:14.580Z,10.28
2019-01-26T11:01:45.032Z,11.60
2019-01-26T11:04:15.274Z,10.88
2019-01-26T11:06:46.701Z,10.40
2019-01-26T11:09:17.023Z,11.10
2019-01-26T11:11:47.547Z,10.13
2019-01-26T11:14:17.957Z,10.75
2019-01-26T11:16:51.257Z,8.60
2019-01-26T11:19:21.628Z,10.23
2019-01-26T11:21:52.115Z,8.97
2019-01-26T11:24:22.461Z,10.30
2019-01-26T11:26:55.350Z,10.43
2019-01-26T11:29:25.659Z,12.10
2019-01-26T11:31:57.144Z,11.83
2019-01-26T11:34:27.482Z,11.70
2019-01-26T11:36:58.135Z,11.40
2019-01-26T11:39:28.565Z,8.33
2019-01-26T11:41:58.937Z,11.07
2019-01-26T11:44:29.440Z,13.13
2019-01-26T11:47:04.764Z,12.80
2019-01-26T11:49:35.196Z,13.80
2019-01-26T11:52:14.790Z,14.97
2019-01-26T12:20:06.902Z,15.67
2019-01-26T12:23:12.744Z,13.53
2019-01-26T12:25:47.389Z,14.53
2019-01-26T12:32:16.418Z,15.17
2019-01-26T12:34:52.072Z,15.43
2019-01-26T12:37:24.217Z,14.83
2019-01-26T12:41:31.247Z,15.77
2019-01-26T12:47:50.483Z,15.13
2019-01-26T12:50:47.498Z,14.30
2019-01-26T13:02:06.086Z,11.40
2019-01-26T13:09:31.679Z,13.50
2019-01-26T13:12:15.797Z,11.40
2019-01-26T13:14:47.192Z,12.05
2019-01-26T13:17:17.925Z,10.75
2019-01-26T13:19:53.532Z,12.37
2019-01-26T13:22:27.225Z,11.35
2019-01-26T13:24:58.145Z,11.47
2019-01-26T13:27:28.894Z,10.90
2019-01-26T13:29:59.580Z,12.37
2019-01-26T13:32:30.179Z,11.68
2019-01-26T13:35:00.920Z,11.90
2019-01-26T13:37:31.469Z,11.93
2019-01-26T13:40:01.933Z,12.30
2019-01-26T13:42:33.626Z,12.77
2019-01-26T13:45:04.698Z,15.20
2019-01-26T13:47:38.032Z,16.03
2019-01-26T13:50:09.441Z,14.93
2019-01-26T13:52:39.932Z,16.07
2019-01-26T13:55:16.740Z,15.40
2019-01-26T13:57:47.280Z,14.77
2019-01-26T14:00:24.771Z,15.20
2019-01-26T14:02:56.402Z,15.88
2019-01-26T14:05:28.983Z,15.40
2019-01-26T14:07:59.495Z,15.23
2019-01-26T14:10:29.961Z,15.50
2019-01-26T14:13:00.472Z,14.73
2019-01-26T14:15:30.950Z,15.88
2019-01-26T14:18:05.182Z,16.13
2019-01-26T14:20:35.764Z,16.53
2019-01-26T14:23:07.084Z,15.43
2019-01-26T14:25:37.425Z,15.53
2019-01-26T14:28:10.621Z,15.63
2019-01-26T14:30:51.526Z,15.23
2019-01-26T14:33:21.943Z,16.15
2019-01-26T14:35:54.006Z,15.97
2019-01-26T14:38:24.708Z,15.33
2019-01-26T14:41:01.087Z,15.37
2019-01-26T14:43:31.763Z,14.00
2019-01-26T14:46:05.568Z,15.47
2019-01-26T14:48:36.191Z,15.37
2019-01-26T14:51:07.767Z,15.43
2019-01-26T14:53:39.839Z,15.72
2019-01-26T14:56:19.194Z,16.93
2019-01-26T14:58:56.698Z,16.25
2019-01-26T15:01:39.010Z,15.70
2019-01-26T15:04:20.957Z,17.17
2019-01-26T15:07:35.139Z,17.87
2019-01-26T15:10:19.192Z,18.73
2019-01-26T15:13:49.387Z,19.10
2019-01-26T15:16:41.772Z,18.00
2019-01-26T15:24:17.452Z,16.77
2019-01-26T15:27:01.995Z,16.53
2019-01-26T15:29:35.787Z,15.37
2019-01-26T15:32:19.145Z,18.50
2019-01-26T15:48:45.531Z,18.37
2019-01-26T15:55:14.089Z,20.77
2019-01-26T17:11:07.334Z,22.57
2019-01-26T17:17:37.488Z,18.92
2019-01-26T17:20:17.921Z,20.47
2019-01-26T17:22:48.963Z,19.97
2019-01-26T17:25:20.108Z,19.77
2019-01-26T17:28:24.211Z,21.23
2019-01-26T17:31:08.711Z,19.87
2019-01-26T17:34:16.606Z,20.20
2019-01-26T17:36:31.869Z,18.23
2019-01-26T17:39:25.154Z,21.10
2019-01-26T17:42:32.504Z,20.60
2019-01-26T17:45:22.519Z,20.27
2019-01-26T17:48:06.175Z,20.07
2019-01-26T17:50:42.088Z,19.67
2019-01-26T17:53:14.084Z,20.40
2019-01-26T17:55:45.008Z,21.60
2019-01-26T17:58:16.030Z,21.57
2019-01-26T18:00:59.290Z,21.30
2019-01-26T18:03:30.254Z,20.90
2019-01-26T18:06:02.686Z,20.30
2019-01-26T18:08:34.103Z,19.57
2019-01-26T18:11:04.905Z,18.23
2019-01-26T18:13:37.823Z,19.10
2019-01-26T18:16:09.674Z,18.17
2019-01-26T18:18:40.275Z,16.62
2019-01-26T18:21:12.066Z,17.73
2019-01-26T18:23:44.364Z,16.33
2019-01-26T18:26:15.724Z,17.27
2019-01-26T18:28:46.606Z,17.37
2019-01-26T18:31:17.170Z,16.73
2019-01-26T18:33:47.581Z,15.40
2019-01-26T18:36:18.662Z,16.60
2019-01-26T18:38:52.849Z,14.20
2019-01-26T18:41:23.425Z,16.05
2019-01-26T18:43:54.129Z,16.53
2019-01-26T18:46:28.426Z,15.97
2019-01-26T18:48:59.137Z,17.83
2019-01-26T18:51:29.659Z,15.87
2019-01-26T18:54:00.292Z,18.20
2019-01-26T18:56:32.167Z,17.40
2019-01-26T18:59:02.533Z,16.30
2019-01-26T19:01:33.299Z,17.17
2019-01-26T19:04:48.713Z,18.53
2019-01-26T19:07:19.261Z,18.07
2019-01-26T19:09:49.977Z,18.57
2019-01-26T19:12:20.429Z,19.20
2019-01-26T19:14:52.844Z,18.90
2019-01-26T19:17:29.486Z,19.02
2019-01-26T19:20:02.110Z,20.47
2019-01-26T19:22:32.980Z,19.23
2019-01-26T19:25:05.830Z,21.50
2019-01-26T19:27:36.425Z,20.10
2019-01-26T19:30:10.314Z,20.03
2019-01-26T19:32:40.868Z,21.00
2019-01-26T19:35:12.289Z,20.52
2019-01-26T19:37:42.846Z,19.40
2019-01-26T19:40:19.721Z,22.35
2019-01-26T19:42:53.333Z,22.17
2019-01-26T19:45:23.784Z,20.48
2019-01-26T19:47:54.391Z,19.80
2019-01-26T19:50:25.012Z,21.03
2019-01-26T19:52:57.760Z,22.80
2019-01-26T19:55:28.214Z,22.60
2019-01-26T19:57:58.695Z,23.73
2019-01-26T20:00:31.835Z,22.33
2019-01-26T20:03:03.435Z,22.07
2019-01-26T20:05:34.006Z,21.60
2019-01-26T20:08:04.482Z,22.67
2019-01-26T20:10:34.809Z,21.73
2019-01-26T20:13:05.511Z,23.77
2019-01-26T20:15:35.976Z,22.17
2019-01-26T20:18:07.271Z,25.67
2019-01-26T20:20:39.307Z,23.97
2019-01-26T20:23:10.875Z,26.13
2019-01-26T20:25:41.361Z,26.30
2019-01-26T20:28:11.959Z,25.92
2019-01-26T20:30:42.482Z,25.93
2019-01-26T20:33:12.911Z,22.97
2019-01-26T20:35:44.674Z,27.67
2019-01-26T20:38:15.104Z,27.70
2019-01-26T20:40:45.602Z,27.20
2019-01-26T20:43:15.976Z,25.50
2019-01-26T20:45:46.411Z,28.03
2019-01-26T20:48:20.026Z,29.00
2019-01-26T20:50:50.464Z,30.30
2019-01-26T20:53:20.866Z,31.97
2019-01-26T20:55:52.786Z,32.43
2019-01-26T20:58:23.234Z,29.37
2019-01-26T21:00:53.692Z,30.97
2019-01-26T21:03:24.085Z,34.70
2019-01-26T21:05:57.492Z,33.83
2019-01-26T21:08:28.016Z,33.90
2019-01-26T21:10:58.449Z,33.50
2019-01-26T21:13:28.826Z,34.33
2019-01-26T21:15:59.229Z,33.63
2019-01-26T21:18:29.668Z,38.73
2019-01-26T21:21:03.328Z,34.60
2019-01-26T21:23:35.561Z,30.37
2019-01-26T21:26:07.265Z,32.43
2019-01-26T21:28:37.624Z,33.90
2019-01-26T21:31:12.398Z,34.57
2019-01-26T21:33:44.093Z,32.23
2019-01-26T21:36:25.601Z,30.97
2019-01-26T21:38:57.807Z,26.73
2019-01-26T21:41:38.052Z,28.33
2019-01-26T21:44:23.150Z,29.03
2019-01-26T21:46:55.755Z,28.53
2019-01-26T21:49:29.005Z,29.53
2019-01-26T21:52:04.859Z,28.77
2019-01-26T21:54:35.803Z,27.50
2019-01-26T21:57:07.950Z,29.70
2019-01-26T21:59:39.204Z,25.88
2019-01-26T22:02:10.243Z,28.50
2019-01-26T22:04:41.187Z,29.83
2019-01-26T22:07:14.999Z,27.77
2019-01-26T22:09:46.945Z,28.13
2019-01-26T22:12:19.380Z,26.45
2019-01-26T22:14:55.556Z,27.03
2019-01-26T22:18:16.956Z,23.90
2019-01-26T22:22:00.419Z,25.90
2019-01-26T22:24:26.659Z,26.93
2019-01-26T22:26:57.262Z,23.70
2019-01-26T22:29:50.781Z,23.63
2019-01-26T22:38:16.446Z,21.10
2019-01-26T22:45:53.433Z,22.43
2019-01-26T22:50:14.950Z,21.50
2019-01-26T23:29:02.042Z,21.77
2019-01-26T23:32:10.829Z,21.02
2019-01-26T23:47:21.462Z,21.23
2019-01-26T23:50:51.755Z,20.23
2019-01-26T23:52:58.264Z,22.10
2019-01-26T23:55:29.004Z,20.60
2019-01-26T23:58:09.420Z,20.47
